^^
Station Historical Data
Daily Summary for October 3, 2017 Units:  Metric    English   Both
« Previous Day
Next Day »
Daily Weekly Monthly Yearly Custom
  High: Low: Average:
Temperature: 29.4 °C 13.7 °C 20.6 °C
Dew Point: 11.4 °C -13.8 °C 2.8 °C
Humidity: 66% 6% 38%
Wind Speed: 24.1km/h 0km/h 6.9km/h
Wind Gust: 32.2km/h - -
Wind- - SW
Pressure: 1010.7 hPa 1003.6 hPa -
Precipitation: 0 mm    
Historical Graphs
 
 
Tabular Data for October 3, 2017
Time Temperature Dew Point Pressure Wind Wind Speed Wind Gust Humidity Rainfall Rate (Hourly) solar Conditions
00:05 26.2 °C -2.5 °C 1005.3 hPa Calm     15% 0 mm 0.0 W/m2
00:15 26.9 °C -6.1 °C 1005.3 hPa Calm     11% 0 mm 0.0 W/m2
00:20 27.1 °C -8.5 °C 1005.3 hPa SW 7.9 km/h 11.3 km/h 9% 0 mm 0.0 W/m2
00:25 27.3 °C -9.9 °C 1005.3 hPa SW 7.9 km/h 14.5 km/h 8% 0 mm 0.0 W/m2
00:30 27.3 °C -11.5 °C 1005.3 hPa SW 7.9 km/h 14.5 km/h 7% 0 mm 0.0 W/m2
00:35 27.3 °C -11.5 °C 1005.3 hPa SW 6.4 km/h 12.9 km/h 7% 0 mm 0.0 W/m2
00:40 27.1 °C -11.7 °C 1005.3 hPa SW 7.9 km/h 12.9 km/h 7% 0 mm 0.0 W/m2
00:45 27 °C -11.8 °C 1005.3 hPa SW 11.1 km/h 12.9 km/h 7% 0 mm 0.0 W/m2
00:50 27 °C -13.7 °C 1005.3 hPa SW 7.9 km/h 12.9 km/h 6% 0 mm 0.0 W/m2
00:55 27 °C -13.7 °C 1005 hPa SW 1.4 km/h 12.9 km/h 6% 0 mm 0.0 W/m2
01:01 26.9 °C -13.7 °C 1004.6 hPa Calm     6% 0 mm 0.0 W/m2
01:06 26.8 °C -13.8 °C 1004.6 hPa Calm     6% 0 mm 0.0 W/m2
01:11 26.6 °C -10.4 °C 1004.6 hPa Calm     8% 0 mm 0.0 W/m2
01:16 26.2 °C -1.6 °C 1004.6 hPa Calm     16% 0 mm 0.0 W/m2
01:22 25.8 °C -1.1 °C 1004.6 hPa Calm     17% 0 mm 0.0 W/m2
01:27 25.4 °C -4 °C 1004.6 hPa Calm     14% 0 mm 0.0 W/m2
01:32 25.2 °C -8.6 °C 1004.6 hPa Calm     10% 0 mm 0.0 W/m2
01:37 25.2 °C -8.6 °C 1004.6 hPa Calm     10% 0 mm 0.0 W/m2
01:42 25.1 °C -7.4 °C 1004.6 hPa Calm     11% 0 mm 0.0 W/m2
01:49 24.9 °C -6.5 °C 1004.6 hPa Calm     12% 0 mm 0.0 W/m2
01:54 24.8 °C -5.5 °C 1004.6 hPa Calm     13% 0 mm 0.0 W/m2
02:03 24.2 °C 1.8 °C 1004.3 hPa Calm     23% 0 mm 0.0 W/m2
02:08 23.9 °C -1.9 °C 1003.9 hPa Calm     18% 0 mm 0.0 W/m2
02:13 23.8 °C -1.2 °C 1003.9 hPa Calm     19% 0 mm 0.0 W/m2
02:23 23.3 °C 2.7 °C 1003.9 hPa Calm     26% 0 mm 0.0 W/m2
02:28 23.1 °C 4.1 °C 1003.9 hPa Calm     29% 0 mm 0.0 W/m2
02:33 22.9 °C 5.3 °C 1004.3 hPa Calm     32% 0 mm 0.0 W/m2
02:39 22.8 °C 4.3 °C 1004.3 hPa Calm     30% 0 mm 0.0 W/m2
02:44 22.6 °C 4.1 °C 1003.9 hPa Calm     30% 0 mm 0.0 W/m2
02:49 22.5 °C 1.5 °C 1003.9 hPa Calm   4.8 km/h 25% 0 mm 0.0 W/m2
02:55 22.8 °C 1.7 °C 1003.9 hPa Calm     25% 0 mm 0.0 W/m2
03:00 23.4 °C -3 °C 1003.6 hPa SW 7.9 km/h 16.1 km/h 17% 0 mm 0.0 W/m2
03:05 24.4 °C -3.1 °C 1003.6 hPa Calm   9.7 km/h 16% 0 mm 0.0 W/m2
03:10 24.5 °C 0.7 °C 1003.6 hPa Calm     21% 0 mm 0.0 W/m2
03:15 24.7 °C -3.7 °C 1003.6 hPa Calm     15% 0 mm 0.0 W/m2
03:20 25 °C -3.4 °C 1003.9 hPa Calm     15% 0 mm 0.0 W/m2
03:25 25.1 °C -3.4 °C 1003.9 hPa Calm     15% 0 mm 0.0 W/m2
03:31 25.1 °C -4.3 °C 1003.9 hPa Calm     14% 0 mm 0.0 W/m2
03:36 25.1 °C -4.3 °C 1003.9 hPa Calm     14% 0 mm 0.0 W/m2
03:41 24.7 °C 5 °C 1003.9 hPa Calm     28% 0 mm 0.0 W/m2
03:51 20.4 °C 6.7 °C 1003.9 hPa SW 13 km/h 20.9 km/h 41% 0 mm 0.0 W/m2
03:56 19.4 °C 7.2 °C 1003.9 hPa SW 13 km/h 19.3 km/h 45% 0 mm 0.0 W/m2
04:06 18.7 °C 6.8 °C 1003.9 hPa SW 7.9 km/h 9.7 km/h 46% 0 mm 0.0 W/m2
04:11 18.7 °C 6.8 °C 1003.9 hPa SW 11.1 km/h 14.5 km/h 46% 0 mm 0.0 W/m2
04:16 18.7 °C 6.8 °C 1003.9 hPa SW 13 km/h 16.1 km/h 46% 0 mm 0.0 W/m2
04:21 18.4 °C 6.9 °C 1003.9 hPa SW 9.7 km/h 12.9 km/h 47% 0 mm 0.0 W/m2
04:26 18.1 °C 7.2 °C 1003.9 hPa SW 9.7 km/h 14.5 km/h 49% 0 mm 0.0 W/m2
04:36 17.1 °C 7.2 °C 1003.9 hPa SW 13 km/h 14.5 km/h 52% 0 mm 0.0 W/m2
04:41 16.9 °C 7.3 °C 1003.9 hPa SW 11.1 km/h 16.1 km/h 53% 0 mm 0.0 W/m2
04:46 16.5 °C 7.2 °C 1004.3 hPa SW 14.3 km/h 17.7 km/h 54% 0 mm 0.0 W/m2
04:51 16.3 °C 7.2 °C 1004.3 hPa SW 11.1 km/h 16.1 km/h 55% 0 mm 0.0 W/m2
04:56 16 °C 7.2 °C 1004.3 hPa SW 7.9 km/h 16.1 km/h 56% 0 mm 0.0 W/m2
05:01 15.8 °C 7.3 °C 1004.3 hPa SW 14.3 km/h 17.7 km/h 57% 0 mm 0.0 W/m2
05:11 15.3 °C 7.3 °C 1004.6 hPa SW 16.3 km/h 19.3 km/h 59% 0 mm 0.0 W/m2
05:21 14.9 °C 7.2 °C 1004.6 hPa SW 13 km/h 16.1 km/h 60% 0 mm 0.0 W/m2
05:36 14.4 °C 7.4 °C 1005 hPa SW 7.9 km/h 17.7 km/h 63% 0 mm 0.0 W/m2
05:46 14.4 °C 7.4 °C 1005 hPa SW 13 km/h 20.9 km/h 63% 0 mm 0.0 W/m2
05:51 14.3 °C 7.4 °C 1005 hPa SW 13 km/h 17.7 km/h 63% 0 mm 0.0 W/m2
05:56 14.3 °C 7.6 °C 1004.6 hPa SW 14.3 km/h 16.1 km/h 64% 0 mm 0.0 W/m2
06:01 14.2 °C 7.5 °C 1004.6 hPa SW 9.7 km/h 12.9 km/h 64% 0 mm 0.0 W/m2
06:06 14.1 °C 7.4 °C 1004.6 hPa SW 3.2 km/h 6.4 km/h 64% 0 mm 0.0 W/m2
06:12 14 °C 7.3 °C 1005 hPa SW 7.9 km/h 8 km/h 64% 0 mm 0.0 W/m2
06:17 14 °C 7.5 °C 1005 hPa SW 9.7 km/h 11.3 km/h 65% 0 mm 0.0 W/m2
06:22 14 °C 7.5 °C 1005 hPa SW 4.7 km/h 8 km/h 65% 0 mm 0.0 W/m2
06:27 13.9 °C 7.2 °C 1005 hPa SW 4.7 km/h 6.4 km/h 64% 0 mm 0.0 W/m2
06:32 13.9 °C 7.2 °C 1005 hPa SW 4.7 km/h 6.4 km/h 64% 0 mm 0.0 W/m2
06:43 13.9 °C 7.2 °C 1005.3 hPa Calm     64% 0 mm 0.0 W/m2
06:58 13.8 °C 7.1 °C 1005.3 hPa Calm     64% 0 mm 5.0 W/m2
07:08 13.8 °C 7.3 °C 1005 hPa Calm     65% 0 mm 12.0 W/m2
07:13 13.7 °C 7.2 °C 1005.3 hPa Calm     65% 0 mm 35.0 W/m2
07:25 13.8 °C 7.3 °C 1005.3 hPa Calm     65% 0 mm 107.0 W/m2
07:31 14 °C 7.5 °C 1005.3 hPa Calm     65% 0 mm 125.0 W/m2
07:45 14.4 °C 7.7 °C 1005.3 hPa Calm     64% 0 mm 162.0 W/m2
08:01 15.1 °C 7.6 °C 1005.6 hPa Calm     61% 0 mm 213.0 W/m2
08:16 15.7 °C 7.7 °C 1005.6 hPa Calm     59% 0 mm 276.0 W/m2
08:30 16.8 °C 8 °C 1005.6 hPa Calm     56% 0 mm 329.0 W/m2
08:46 17.6 °C 7.9 °C 1005.6 hPa Calm     53% 0 mm 427.0 W/m2
08:55 18.4 °C 8.1 °C 1005.6 hPa Calm     51% 0 mm 90.0 W/m2
09:10 18.7 °C 8.6 °C 1006 hPa Calm   3.2 km/h 52% 0 mm 42.0 W/m2
09:17 18.7 °C 8.6 °C 1006 hPa Calm   3.2 km/h 52% 0 mm 42.0 W/m2
09:33 18.3 °C 10.9 °C 1006.3 hPa Calm     62% 0 mm 130.0 W/m2
09:50 18.3 °C 10.6 °C 1006 hPa SW 3.2 km/h 3.2 km/h 61% 0 mm 445.0 W/m2
10:10 18.1 °C 10 °C 1006.3 hPa SW 7.9 km/h 9.7 km/h 59% 0 mm 60.0 W/m2
10:22 17.4 °C 11 °C 1006 hPa SW 1.4 km/h 6.4 km/h 66% 0.51 mm 148.0 W/m2
10:51 17.8 °C 11.4 °C 1005.6 hPa SW 11.1 km/h 12.9 km/h 66% 0.51 mm 128.0 W/m2
11:12 18.2 °C 10.6 °C 1005.6 hPa SW 9.7 km/h 11.3 km/h 61% 0.51 mm 401.0 W/m2
11:31 20.3 °C 9.8 °C 1005.6 hPa Calm   1.6 km/h 51% 0 mm 809.0 W/m2
11:43 22.5 °C 9.3 °C 1005 hPa Calm     43% 0 mm 949.0 W/m2
13:24 29.4 °C -4.1 °C 1003.6 hPa NNW 13 km/h 20.9 km/h 11% 0 mm 810.0 W/m2
13:54 25.9 °C 6 °C 1003.6 hPa SW 17.7 km/h 30.6 km/h 28% 0 mm 796.0 W/m2
14:42 24.1 °C 5.9 °C 1003.9 hPa SW 20.9 km/h 27.4 km/h 31% 0 mm 385.0 W/m2
14:56 23.4 °C 6.2 °C 1003.6 hPa SW 22.7 km/h 32.2 km/h 33% 0 mm 281.0 W/m2
15:49 24.6 °C 4.9 °C 1004.3 hPa South 20.9 km/h 20.9 km/h 28% 0 mm 457.0 W/m2
16:00 25.1 °C 5.3 °C 1004.6 hPa SSW 20.9 km/h 24.1 km/h 28% 0 mm 450.0 W/m2
17:00 24.1 °C 3.9 °C 1004.6 hPa SSW 14.3 km/h 25.7 km/h 27% 0 mm 132.0 W/m2
17:12 23.9 °C 4.3 °C 1004.6 hPa SSW 14.3 km/h 20.9 km/h 28% 0 mm 218.0 W/m2
17:27 23.8 °C 4.2 °C 1004.6 hPa SW 20.9 km/h 29 km/h 28% 0 mm 246.0 W/m2
17:54 22.8 °C 3.8 °C 1005.3 hPa SSW 16.3 km/h 22.5 km/h 29% 0 mm 56.0 W/m2
18:16 22.3 °C 3.9 °C 1006 hPa SSW 13 km/h 19.3 km/h 30% 0 mm 25.0 W/m2
18:40 21.7 °C 3.8 °C 1006.3 hPa SSW 19.5 km/h 24.1 km/h 31% 0 mm 7.0 W/m2
18:59 21.2 °C 4.3 °C 1006.7 hPa SSW 13 km/h 19.3 km/h 33% 0 mm 0.0 W/m2
19:41 20.3 °C 5.1 °C 1007.3 hPa SSW 16.3 km/h 20.9 km/h 37% 0 mm 0.0 W/m2
20:37 18.3 °C 6.8 °C 1009.7 hPa SSW 17.7 km/h 17.7 km/h 47% 0 mm 0.0 W/m2
21:08 17.7 °C 6.8 °C 1009.7 hPa SSW 20.9 km/h 22.5 km/h 49% 0 mm 0.0 W/m2
21:22 17.3 °C 6.8 °C 1009.7 hPa SSW 20.9 km/h 20.9 km/h 50% 0 mm 0.0 W/m2
22:07 16 °C 7.2 °C 1010.7 hPa SSW 16.3 km/h 20.9 km/h 56% 0 mm 0.0 W/m2
22:22 15.7 °C 7.2 °C 1010.7 hPa SSW 16.3 km/h 24.1 km/h 57% 0 mm 0.0 W/m2
22:30 15.3 °C 7.3 °C 1010.7 hPa SSW 22.7 km/h 24.1 km/h 59% 0 mm 0.0 W/m2
22:39 14.9 °C 7.4 °C 1010.4 hPa South 24.1 km/h 27.4 km/h 61% 0 mm 0.0 W/m2
Canyon Roadhouse, Fishriver Canyon, Namibia
Compliments of Weather Underground - 2.25 mb